createdAt,value
2023-11-08T00:00:17.769Z,99.90
2023-11-08T00:02:44.722Z,99.90
2023-11-08T00:05:11.670Z,99.90
2023-11-08T00:07:38.651Z,99.90
2023-11-08T00:10:06.130Z,99.90
2023-11-08T00:12:33.105Z,99.90
2023-11-08T00:15:01.173Z,99.90
2023-11-08T00:17:28.486Z,99.90
2023-11-08T00:19:56.043Z,99.90
2023-11-08T00:22:23.774Z,99.90
2023-11-08T00:24:50.698Z,99.90
2023-11-08T00:27:17.764Z,99.90
2023-11-08T00:29:44.737Z,99.90
2023-11-08T00:32:11.632Z,99.90
2023-11-08T00:34:38.868Z,99.90
2023-11-08T00:37:06.305Z,99.90
2023-11-08T00:39:33.687Z,99.90
2023-11-08T00:42:00.654Z,99.90
2023-11-08T00:44:27.652Z,99.90
2023-11-08T00:46:55.443Z,99.90
2023-11-08T00:49:22.593Z,99.90
2023-11-08T00:51:49.635Z,99.90
2023-11-08T00:54:16.595Z,99.90
2023-11-08T00:56:43.492Z,99.90
2023-11-08T00:59:10.434Z,99.90
2023-11-08T01:01:37.859Z,99.90
2023-11-08T01:04:08.452Z,99.90
2023-11-08T01:06:35.634Z,99.90
2023-11-08T01:09:02.674Z,99.90
2023-11-08T01:11:29.914Z,99.90
2023-11-08T01:13:56.859Z,99.90
2023-11-08T01:16:25.503Z,99.90
2023-11-08T01:18:52.874Z,99.90
2023-11-08T01:21:19.917Z,99.90
2023-11-08T01:23:47.029Z,99.90
2023-11-08T01:26:13.918Z,99.90
2023-11-08T01:28:41.027Z,99.90
2023-11-08T01:31:08.401Z,99.90
2023-11-08T01:33:35.576Z,99.90
2023-11-08T01:36:02.577Z,99.90
2023-11-08T01:38:29.826Z,99.90
2023-11-08T01:40:56.740Z,99.90
2023-11-08T01:43:30.313Z,99.90
2023-11-08T01:46:08.967Z,99.90
2023-11-08T01:48:36.397Z,99.90
2023-11-08T01:51:04.981Z,99.90
2023-11-08T01:53:33.841Z,99.90
2023-11-08T01:56:01.373Z,99.90
2023-11-08T01:58:28.450Z,99.90
2023-11-08T02:00:55.884Z,99.90
2023-11-08T02:03:24.884Z,99.90
2023-11-08T02:05:52.725Z,99.90
2023-11-08T02:08:19.707Z,99.90
2023-11-08T02:10:47.264Z,99.90
2023-11-08T02:13:14.229Z,99.90
2023-11-08T02:15:44.098Z,99.90
2023-11-08T02:18:12.164Z,99.90
2023-11-08T02:20:39.295Z,99.90
2023-11-08T02:23:06.315Z,99.90
2023-11-08T02:25:33.882Z,99.90
2023-11-08T02:28:00.969Z,99.90
2023-11-08T02:30:28.293Z,99.90
2023-11-08T02:32:55.408Z,99.90
2023-11-08T02:35:22.923Z,99.90
2023-11-08T02:37:50.170Z,99.90
2023-11-08T02:40:17.572Z,99.90
2023-11-08T02:42:48.052Z,99.90
2023-11-08T02:45:15.246Z,99.90
2023-11-08T02:47:42.591Z,99.90
2023-11-08T02:50:09.957Z,99.90
2023-11-08T02:52:36.918Z,99.90
2023-11-08T02:55:05.379Z,99.90
2023-11-08T02:57:32.482Z,99.90
2023-11-08T02:59:59.641Z,99.90
2023-11-08T03:02:26.658Z,99.90
2023-11-08T03:04:53.685Z,99.90
2023-11-08T03:07:22.043Z,99.90
2023-11-08T03:09:49.266Z,99.90
2023-11-08T03:12:17.423Z,99.90
2023-11-08T03:14:44.347Z,99.90
2023-11-08T03:17:11.364Z,99.90
2023-11-08T03:19:38.410Z,99.90
2023-11-08T03:22:06.107Z,99.90
2023-11-08T03:24:33.013Z,99.90
2023-11-08T03:27:00.103Z,99.90
2023-11-08T03:29:27.181Z,99.90
2023-11-08T03:31:54.261Z,99.90
2023-11-08T03:34:22.824Z,99.90
2023-11-08T03:36:49.812Z,99.90
2023-11-08T03:39:17.442Z,99.90
2023-11-08T03:41:44.335Z,99.90
2023-11-08T03:44:11.198Z,99.90
2023-11-08T03:46:38.127Z,99.90
2023-11-08T03:49:05.989Z,99.90
2023-11-08T03:51:32.993Z,99.90
2023-11-08T03:53:59.996Z,99.90
2023-11-08T03:56:28.888Z,99.90
2023-11-08T03:58:56.027Z,99.90
2023-11-08T04:01:23.040Z,99.90
2023-11-08T04:03:50.158Z,99.90
2023-11-08T04:06:17.511Z,99.90
2023-11-08T04:08:44.724Z,99.90
2023-11-08T04:11:11.702Z,99.90
2023-11-08T04:13:38.599Z,99.90
2023-11-08T04:16:05.775Z,99.90
2023-11-08T04:18:34.635Z,99.90
2023-11-08T04:21:02.076Z,99.90
2023-11-08T04:23:29.155Z,99.90
2023-11-08T04:25:56.421Z,99.90
2023-11-08T04:28:23.611Z,99.90
2023-11-08T04:30:50.616Z,99.90
2023-11-08T04:33:17.570Z,99.90
2023-11-08T04:35:44.653Z,99.90
2023-11-08T04:38:11.983Z,99.90
2023-11-08T04:40:39.201Z,99.90
2023-11-08T04:43:07.133Z,99.90
2023-11-08T04:45:34.200Z,99.90
2023-11-08T04:48:01.200Z,99.90
2023-11-08T04:50:28.434Z,99.90
2023-11-08T04:52:55.748Z,99.90
2023-11-08T04:55:22.748Z,99.90
2023-11-08T04:57:49.933Z,99.90
2023-11-08T05:00:17.192Z,99.90
2023-11-08T05:02:45.608Z,99.90
2023-11-08T05:05:14.130Z,99.90
2023-11-08T05:07:41.077Z,99.90
2023-11-08T05:10:09.310Z,99.90
2023-11-08T05:12:36.895Z,99.90
2023-11-08T05:15:07.250Z,99.90
2023-11-08T05:17:34.531Z,99.90
2023-11-08T05:20:01.462Z,99.90
2023-11-08T05:22:28.693Z,99.90
2023-11-08T05:24:55.795Z,99.90
2023-11-08T05:27:23.158Z,99.90
2023-11-08T05:29:50.171Z,99.90
2023-11-08T05:32:21.661Z,99.90
2023-11-08T05:34:49.310Z,99.90
2023-11-08T05:37:16.321Z,99.90
2023-11-08T05:39:44.249Z,99.90
2023-11-08T05:42:11.381Z,99.90
2023-11-08T05:44:38.393Z,99.90
2023-11-08T05:47:05.519Z,99.90
2023-11-08T05:49:36.454Z,99.90
2023-11-08T05:52:04.378Z,99.90
2023-11-08T05:54:31.911Z,99.90
2023-11-08T05:56:59.166Z,99.90
2023-11-08T05:59:27.103Z,99.90
2023-11-08T06:01:54.154Z,99.90
2023-11-08T06:04:21.217Z,99.90
2023-11-08T06:06:49.656Z,99.90
2023-11-08T06:09:16.692Z,99.90
2023-11-08T06:11:43.641Z,99.90
2023-11-08T06:14:11.478Z,99.90
2023-11-08T06:16:42.019Z,99.90
2023-11-08T06:19:09.614Z,99.90
2023-11-08T06:21:36.866Z,99.90
2023-11-08T06:24:06.001Z,99.90
2023-11-08T06:26:33.270Z,99.90
2023-11-08T06:29:00.170Z,99.90
2023-11-08T06:31:27.117Z,99.90
2023-11-08T06:33:54.098Z,99.90
2023-11-08T06:36:21.217Z,99.90
2023-11-08T06:38:48.243Z,99.90
2023-11-08T06:41:15.283Z,99.90
2023-11-08T06:43:42.296Z,99.90
2023-11-08T06:46:09.246Z,99.90
2023-11-08T06:48:36.158Z,99.90
2023-11-08T06:51:03.242Z,99.90
2023-11-08T06:53:30.369Z,99.90
2023-11-08T06:55:59.267Z,99.90
2023-11-08T06:58:32.260Z,99.90
2023-11-08T07:01:09.346Z,99.90
2023-11-08T07:03:39.330Z,99.90
2023-11-08T07:06:06.471Z,99.90
2023-11-08T07:08:33.658Z,99.90
2023-11-08T07:11:01.367Z,99.90
2023-11-08T07:13:28.672Z,99.90
2023-11-08T07:15:55.729Z,99.90
2023-11-08T07:18:22.751Z,99.90
2023-11-08T07:20:49.831Z,99.90
2023-11-08T07:23:16.775Z,99.90
2023-11-08T07:25:44.099Z,99.90
2023-11-08T07:28:11.181Z,99.90
2023-11-08T07:30:39.689Z,99.90
2023-11-08T07:33:06.702Z,99.90
2023-11-08T07:35:34.144Z,99.90
2023-11-08T07:38:01.861Z,99.90
2023-11-08T07:40:29.248Z,99.90
2023-11-08T07:42:56.223Z,99.90
2023-11-08T07:45:23.247Z,99.90
2023-11-08T07:47:50.567Z,99.90
2023-11-08T07:50:20.518Z,99.90
2023-11-08T07:52:47.481Z,99.90
2023-11-08T07:55:14.429Z,99.90
2023-11-08T07:57:42.073Z,99.90
2023-11-08T08:00:09.642Z,99.90
2023-11-08T08:02:39.320Z,99.90
2023-11-08T08:05:06.525Z,99.90
2023-11-08T08:07:33.485Z,99.90
2023-11-08T08:10:01.392Z,99.90
2023-11-08T08:12:36.414Z,99.90
2023-11-08T08:15:07.410Z,99.90
2023-11-08T08:17:36.215Z,99.90
2023-11-08T08:20:05.041Z,99.90
2023-11-08T08:22:32.481Z,99.90
2023-11-08T08:25:00.772Z,99.90
2023-11-08T08:27:28.622Z,99.90
2023-11-08T08:29:55.655Z,99.90
2023-11-08T08:32:22.683Z,99.90
2023-11-08T08:34:50.416Z,99.90
2023-11-08T08:37:17.584Z,99.90
2023-11-08T08:39:45.045Z,99.90
2023-11-08T08:42:11.964Z,99.90
2023-11-08T08:44:38.969Z,99.90
2023-11-08T08:47:06.298Z,99.90
2023-11-08T08:49:34.204Z,99.90
2023-11-08T08:52:01.197Z,99.90
2023-11-08T08:54:28.573Z,99.90
2023-11-08T08:56:56.283Z,99.90
2023-11-08T08:59:23.851Z,99.90
2023-11-08T09:01:50.823Z,99.90
2023-11-08T09:04:18.011Z,99.90
2023-11-08T09:06:45.011Z,99.90
2023-11-08T09:09:16.180Z,99.90
2023-11-08T09:11:43.214Z,99.90
2023-11-08T09:14:10.283Z,99.90
2023-11-08T09:16:39.600Z,99.90
2023-11-08T09:19:09.108Z,99.90
2023-11-08T09:21:36.319Z,99.90
2023-11-08T09:24:07.569Z,99.90
2023-11-08T09:26:34.851Z,99.90
2023-11-08T09:29:01.768Z,99.90
2023-11-08T09:31:29.423Z,99.90
2023-11-08T09:33:57.783Z,99.90
2023-11-08T09:36:26.810Z,99.90
2023-11-08T09:38:54.894Z,99.90
2023-11-08T09:41:23.251Z,99.90
2023-11-08T09:43:52.674Z,99.90
2023-11-08T09:46:20.372Z,99.90
2023-11-08T09:48:50.152Z,99.90
2023-11-08T09:51:17.418Z,99.90
2023-11-08T09:53:51.260Z,99.90
2023-11-08T09:56:18.387Z,99.90
2023-11-08T09:58:46.969Z,99.90
2023-11-08T10:01:17.495Z,99.90
2023-11-08T10:03:48.055Z,99.90
2023-11-08T10:06:16.249Z,99.90
2023-11-08T10:08:43.490Z,99.90
2023-11-08T10:11:11.924Z,99.90
2023-11-08T10:13:43.405Z,99.90
2023-11-08T10:16:10.982Z,99.90
2023-11-08T10:19:34.923Z,99.90
2023-11-08T10:21:28.405Z,99.90
2023-11-08T10:24:00.765Z,97.80
2023-11-08T10:26:34.773Z,96.90
2023-11-08T10:29:03.281Z,99.90
2023-11-08T10:31:32.779Z,99.90
2023-11-08T10:34:00.325Z,99.90
2023-11-08T10:36:28.258Z,91.00
2023-11-08T10:38:55.582Z,99.20
2023-11-08T10:41:22.688Z,98.30
2023-11-08T10:44:05.347Z,94.50
2023-11-08T10:46:32.958Z,96.60
2023-11-08T10:49:00.881Z,97.80
2023-11-08T10:51:28.343Z,97.80
2023-11-08T10:53:57.461Z,98.70
2023-11-08T10:56:24.662Z,92.20
2023-11-08T10:58:51.965Z,92.40
2023-11-08T11:01:21.065Z,97.30
2023-11-08T11:03:49.889Z,97.20
2023-11-08T11:06:17.399Z,90.30
2023-11-08T11:08:45.959Z,96.00
2023-11-08T11:11:13.057Z,93.90
2023-11-08T11:13:44.145Z,96.90
2023-11-08T11:16:33.551Z,96.80
2023-11-08T11:19:10.194Z,96.40
2023-11-08T11:21:45.149Z,91.70
2023-11-08T11:24:32.395Z,95.20
2023-11-08T11:26:59.908Z,95.70
2023-11-08T11:29:33.219Z,95.30
2023-11-08T11:32:05.051Z,94.40
2023-11-08T11:34:34.906Z,94.20
2023-11-08T11:37:04.555Z,94.40
2023-11-08T11:39:33.613Z,95.00
2023-11-08T11:42:01.032Z,95.20
2023-11-08T11:44:40.417Z,93.20
2023-11-08T11:47:11.658Z,93.20
2023-11-08T11:49:39.964Z,95.10
2023-11-08T11:52:06.921Z,92.20
2023-11-08T11:54:33.920Z,90.10
2023-11-08T11:57:00.857Z,94.90
2023-11-08T11:59:28.067Z,91.30
2023-11-08T12:01:55.170Z,95.20
2023-11-08T12:04:24.451Z,94.50
2023-11-08T12:06:51.632Z,94.30
2023-11-08T12:09:18.853Z,93.10
2023-11-08T12:11:49.579Z,95.60
2023-11-08T12:14:25.530Z,93.40
2023-11-08T12:16:53.461Z,95.80
2023-11-08T12:19:21.106Z,96.20
2023-11-08T12:21:48.415Z,96.40
2023-11-08T12:24:15.477Z,95.30
2023-11-08T12:26:42.452Z,97.00
2023-11-08T12:29:09.744Z,95.50
2023-11-08T12:31:39.887Z,94.60
2023-11-08T12:34:09.880Z,90.80
2023-11-08T12:36:40.778Z,83.90
2023-11-08T12:39:19.041Z,93.00
2023-11-08T12:41:50.842Z,92.70
2023-11-08T12:44:21.407Z,93.40
2023-11-08T12:46:56.814Z,94.60
2023-11-08T12:49:26.797Z,91.80
2023-11-08T12:51:54.391Z,94.60
2023-11-08T12:54:21.828Z,96.60
2023-11-08T12:56:48.956Z,96.00
2023-11-08T12:59:20.476Z,96.20
2023-11-08T13:01:50.840Z,94.80
2023-11-08T13:04:21.038Z,97.20
2023-11-08T13:06:48.967Z,97.00
2023-11-08T13:09:16.392Z,95.00
2023-11-08T13:11:46.391Z,95.00
2023-11-08T13:14:13.437Z,95.70
2023-11-08T13:16:40.563Z,96.00
2023-11-08T13:19:07.593Z,93.20
2023-11-08T13:21:34.549Z,94.90
2023-11-08T13:24:06.591Z,95.90
2023-11-08T13:26:35.763Z,90.90
2023-11-08T13:29:05.003Z,90.30
2023-11-08T13:31:32.137Z,94.00
2023-11-08T13:33:59.519Z,95.20
2023-11-08T13:36:29.876Z,84.90
2023-11-08T13:38:57.715Z,95.10
2023-11-08T13:41:25.269Z,95.40
2023-11-08T13:43:52.678Z,94.00
2023-11-08T13:46:19.829Z,89.60
2023-11-08T13:48:47.327Z,93.40
2023-11-08T13:51:16.401Z,95.20
2023-11-08T13:53:43.462Z,95.80
2023-11-08T13:56:10.378Z,94.30
2023-11-08T13:58:38.015Z,95.30
2023-11-08T14:01:11.303Z,95.30
2023-11-08T14:03:38.992Z,95.40
2023-11-08T14:06:07.987Z,94.60
2023-11-08T14:08:35.202Z,95.20
2023-11-08T14:11:02.228Z,93.20
2023-11-08T14:13:29.449Z,95.10
2023-11-08T14:15:56.610Z,95.40
2023-11-08T14:18:23.616Z,95.60
2023-11-08T14:20:50.645Z,95.60
2023-11-08T14:23:17.598Z,95.70
2023-11-08T14:25:44.563Z,95.70
2023-11-08T14:28:11.733Z,95.70
2023-11-08T14:30:38.831Z,97.00
2023-11-08T14:33:06.288Z,98.00
2023-11-08T14:35:35.219Z,98.00
2023-11-08T14:38:02.971Z,98.60
2023-11-08T14:40:30.519Z,99.30
2023-11-08T14:42:57.484Z,99.80
2023-11-08T14:45:24.646Z,98.00
2023-11-08T14:47:51.877Z,99.30
2023-11-08T14:50:19.663Z,99.90
2023-11-08T14:52:47.962Z,99.90
2023-11-08T14:55:16.006Z,99.20
2023-11-08T14:57:43.520Z,99.90
2023-11-08T15:00:12.232Z,99.90
2023-11-08T15:02:39.242Z,99.90
2023-11-08T15:05:06.714Z,99.90
2023-11-08T15:09:42.352Z,99.90
2023-11-08T15:10:21.755Z,99.90
2023-11-08T15:12:49.132Z,99.90
2023-11-08T15:15:18.274Z,99.90
2023-11-08T15:17:46.322Z,99.90
2023-11-08T15:20:13.525Z,99.90
2023-11-08T15:22:41.588Z,99.90
2023-11-08T15:25:10.517Z,99.90
2023-11-08T15:27:38.090Z,99.90
2023-11-08T15:30:09.329Z,99.90
2023-11-08T15:32:36.502Z,99.90
2023-11-08T15:35:03.606Z,99.90
2023-11-08T15:37:31.048Z,99.90
2023-11-08T15:39:58.306Z,99.90
2023-11-08T15:42:25.311Z,99.90
2023-11-08T15:44:52.270Z,99.90
2023-11-08T15:47:20.806Z,99.90
2023-11-08T15:49:48.180Z,99.90
2023-11-08T15:52:15.243Z,99.90
2023-11-08T15:54:42.465Z,99.90
2023-11-08T15:57:09.656Z,99.90
2023-11-08T15:59:36.560Z,99.90
2023-11-08T16:02:05.179Z,99.90
2023-11-08T16:04:32.359Z,99.90
2023-11-08T16:07:03.980Z,99.90
2023-11-08T16:09:32.700Z,99.90
2023-11-08T16:12:00.275Z,99.90
2023-11-08T16:14:27.473Z,99.90
2023-11-08T16:16:54.452Z,99.90
2023-11-08T16:19:21.634Z,99.90
2023-11-08T16:21:50.298Z,99.90
2023-11-08T16:24:20.575Z,99.90
2023-11-08T16:26:50.514Z,99.90
2023-11-08T16:29:50.013Z,99.90
2023-11-08T16:32:34.049Z,99.90
2023-11-08T16:34:52.602Z,99.90
2023-11-08T16:37:19.740Z,99.90
2023-11-08T16:39:46.818Z,99.90
2023-11-08T16:42:17.100Z,99.90
2023-11-08T16:44:45.805Z,99.90
2023-11-08T16:47:15.598Z,99.90
2023-11-08T16:49:42.752Z,99.90
2023-11-08T16:52:09.986Z,99.90
2023-11-08T16:54:36.979Z,99.90
2023-11-08T16:57:04.602Z,99.90
2023-11-08T16:59:31.488Z,99.90
2023-11-08T17:01:58.408Z,99.90
2023-11-08T17:04:25.563Z,99.90
2023-11-08T17:06:52.579Z,99.90
2023-11-08T17:09:19.584Z,99.90
2023-11-08T17:11:46.640Z,99.90
2023-11-08T17:14:13.657Z,99.90
2023-11-08T17:16:40.571Z,99.90
2023-11-08T17:19:07.848Z,99.90
2023-11-08T17:21:35.642Z,99.90
2023-11-08T17:24:02.658Z,99.90
2023-11-08T17:26:29.757Z,99.90
2023-11-08T17:28:57.125Z,99.90
2023-11-08T17:31:24.293Z,99.90
2023-11-08T17:33:51.311Z,99.90
2023-11-08T17:36:18.303Z,99.90
2023-11-08T17:38:47.321Z,99.90
2023-11-08T17:41:14.392Z,99.90
2023-11-08T17:43:43.169Z,99.90
2023-11-08T17:46:10.131Z,99.90
2023-11-08T17:48:38.073Z,99.90
2023-11-08T17:51:06.070Z,99.90
2023-11-08T17:53:34.557Z,99.90
2023-11-08T17:56:01.573Z,99.90
2023-11-08T17:58:28.648Z,99.90
2023-11-08T18:00:57.074Z,99.90
2023-11-08T18:03:24.116Z,99.90
2023-11-08T18:05:51.247Z,99.90
2023-11-08T18:08:21.222Z,99.90
2023-11-08T18:10:48.291Z,99.90
2023-11-08T18:13:15.239Z,99.90
2023-11-08T18:15:42.445Z,99.90
2023-11-08T18:18:09.437Z,99.90
2023-11-08T18:20:37.182Z,99.90
2023-11-08T18:23:06.614Z,99.90
2023-11-08T18:25:34.120Z,99.90
2023-11-08T18:28:01.199Z,99.90
2023-11-08T18:30:31.381Z,99.90
2023-11-08T18:32:58.770Z,99.90
2023-11-08T18:35:26.712Z,99.90
2023-11-08T18:37:54.249Z,99.90
2023-11-08T18:40:22.586Z,99.90
2023-11-08T18:42:49.816Z,99.90
2023-11-08T18:45:16.944Z,99.90
2023-11-08T18:47:44.025Z,99.90
2023-11-08T18:50:12.622Z,99.90
2023-11-08T18:52:40.090Z,99.90
2023-11-08T18:55:07.576Z,99.90
2023-11-08T18:57:35.638Z,99.90
2023-11-08T19:00:03.113Z,99.90
2023-11-08T19:02:30.111Z,99.90
2023-11-08T19:04:57.206Z,99.90
2023-11-08T19:07:24.222Z,99.90
2023-11-08T19:09:51.208Z,99.90
2023-11-08T19:12:21.255Z,99.90
2023-11-08T19:14:48.527Z,99.90
2023-11-08T19:17:15.575Z,99.90
2023-11-08T19:19:45.006Z,99.90
2023-11-08T19:22:12.028Z,99.90
2023-11-08T19:24:41.848Z,99.90
2023-11-08T19:27:08.861Z,99.90
2023-11-08T19:29:35.897Z,99.90
2023-11-08T19:32:02.941Z,99.90
2023-11-08T19:34:30.358Z,99.90
2023-11-08T19:36:57.367Z,99.90
2023-11-08T19:39:24.787Z,99.90
2023-11-08T19:41:51.860Z,99.90
2023-11-08T19:44:18.929Z,99.90
2023-11-08T19:46:46.347Z,99.90
2023-11-08T19:49:13.343Z,99.90
2023-11-08T19:51:41.185Z,99.90
2023-11-08T19:54:08.172Z,99.90
2023-11-08T19:56:35.711Z,99.90
2023-11-08T19:59:02.696Z,99.90
2023-11-08T20:01:29.951Z,99.90
2023-11-08T20:03:57.165Z,99.90
2023-11-08T20:06:24.190Z,99.90
2023-11-08T20:08:51.540Z,99.90
2023-11-08T20:11:19.021Z,99.90
2023-11-08T20:13:46.584Z,99.90
2023-11-08T20:16:13.739Z,99.90
2023-11-08T20:18:40.854Z,99.90
2023-11-08T20:21:10.496Z,99.90
2023-11-08T20:23:38.884Z,99.90
2023-11-08T20:26:06.939Z,99.90
2023-11-08T20:28:37.442Z,99.90
2023-11-08T20:31:06.108Z,99.90
2023-11-08T20:33:33.569Z,99.90
2023-11-08T20:36:01.600Z,99.90
2023-11-08T20:38:29.524Z,99.90
2023-11-08T20:40:56.642Z,99.90
2023-11-08T20:43:24.186Z,99.90
2023-11-08T20:45:51.238Z,99.90
2023-11-08T20:48:18.236Z,99.90
2023-11-08T20:50:45.176Z,99.90
2023-11-08T20:53:12.135Z,99.90
2023-11-08T20:55:39.547Z,99.90
2023-11-08T20:58:07.308Z,99.90
2023-11-08T21:00:34.499Z,99.90
2023-11-08T21:03:03.507Z,99.90
2023-11-08T21:05:30.437Z,99.90
2023-11-08T21:07:57.495Z,99.90
2023-11-08T21:10:25.010Z,99.90
2023-11-08T21:12:52.094Z,99.90
2023-11-08T21:15:19.083Z,99.90
2023-11-08T21:17:47.236Z,99.90
2023-11-08T21:20:15.635Z,99.90
2023-11-08T21:22:43.213Z,99.90
2023-11-08T21:25:10.977Z,99.90
2023-11-08T21:27:38.474Z,99.90
2023-11-08T21:30:10.646Z,99.90
2023-11-08T21:32:37.654Z,99.90
2023-11-08T21:35:04.802Z,99.90
2023-11-08T21:37:31.746Z,99.90
2023-11-08T21:39:58.716Z,99.90
2023-11-08T21:42:25.623Z,99.90
2023-11-08T21:44:52.982Z,99.90
2023-11-08T21:47:19.953Z,99.90
2023-11-08T21:49:47.247Z,99.90
2023-11-08T21:52:14.267Z,99.90
2023-11-08T21:54:42.848Z,99.90
2023-11-08T21:57:11.125Z,99.90
2023-11-08T21:59:39.101Z,99.90
2023-11-08T22:02:08.108Z,99.90
2023-11-08T22:04:35.863Z,99.90
2023-11-08T22:07:03.468Z,99.90
2023-11-08T22:09:30.780Z,99.90
2023-11-08T22:11:57.660Z,99.90
2023-11-08T22:14:24.599Z,99.90
2023-11-08T22:16:51.856Z,99.90
2023-11-08T22:19:18.959Z,99.90
2023-11-08T22:21:46.161Z,99.90
2023-11-08T22:24:14.003Z,99.90
2023-11-08T22:26:41.029Z,99.90
2023-11-08T22:29:08.250Z,99.90
2023-11-08T22:31:36.195Z,99.90
2023-11-08T22:34:03.513Z,99.90
2023-11-08T22:36:30.504Z,99.90
2023-11-08T22:38:57.888Z,99.90
2023-11-08T22:41:24.903Z,99.90
2023-11-08T22:43:51.853Z,99.90
2023-11-08T22:46:20.058Z,99.90
2023-11-08T22:48:47.304Z,99.90
2023-11-08T22:51:23.694Z,99.90
2023-11-08T22:53:51.009Z,99.90
2023-11-08T22:56:18.837Z,99.90
2023-11-08T22:58:46.896Z,99.90
2023-11-08T23:01:13.907Z,99.90
2023-11-08T23:03:41.141Z,99.90
2023-11-08T23:06:08.376Z,99.90
2023-11-08T23:08:35.347Z,99.90
2023-11-08T23:11:02.438Z,99.90
2023-11-08T23:13:29.414Z,99.90
2023-11-08T23:15:56.438Z,99.90
2023-11-08T23:18:23.393Z,99.90
2023-11-08T23:20:50.435Z,99.90
2023-11-08T23:23:17.367Z,99.90
2023-11-08T23:25:44.393Z,99.90
2023-11-08T23:28:11.378Z,99.90
2023-11-08T23:30:38.317Z,99.90
2023-11-08T23:33:08.623Z,99.90
2023-11-08T23:35:35.618Z,99.90
2023-11-08T23:38:03.565Z,99.90
2023-11-08T23:40:30.573Z,99.90
2023-11-08T23:42:57.733Z,99.90
2023-11-08T23:45:24.775Z,99.90
2023-11-08T23:47:51.871Z,99.90
2023-11-08T23:50:18.955Z,99.90
2023-11-08T23:52:47.342Z,99.90
2023-11-08T23:55:14.906Z,99.90
2023-11-08T23:57:42.037Z,99.90
